Time;durP1;ratioP1;P1;durP2;ratioP2;P2;SDS_P1;SDS_P2;PMS_P1;PMS_P2;Temp;Humidity;BMP_temperature;BMP_pressure;BME280_temperature;BME280_humidity;BME280_pressure;Samples;Min_cycle;Max_cycle;Signal;HPM_P1;HPM_P2
2021/11/21 00:00:40;;;;;;;;;31.00;30.25;;;;;11.50;62.13;101213.00;2101218;27;47563;-64
2021/11/21 00:01:41;;;;;;;;;27.80;26.00;;;;;11.50;61.80;101216.53;2090957;28;47287;-64
2021/11/21 00:02:41;;;;;;;;;27.50;21.25;;;;;11.51;61.79;101212.09;2097207;28;47508;-63
2021/11/21 00:03:42;;;;;;;;;32.25;30.00;;;;;11.51;61.86;101209.41;2094265;28;47703;-62
2021/11/21 00:04:43;;;;;;;;;34.00;29.75;;;;;11.51;61.90;101206.75;2083113;28;46724;-66
2021/11/21 00:05:44;;;;;;;;;33.75;30.75;;;;;11.49;61.61;101206.78;2087406;28;47070;-63
2021/11/21 00:06:44;;;;;;;;;36.40;32.20;;;;;11.50;61.85;101210.31;2094144;28;47388;-63
2021/11/21 00:07:45;;;;;;;;;27.00;25.00;;;;;11.49;61.80;101197.94;2099166;27;45286;-63
2021/11/21 00:08:46;;;;;;;;;33.25;31.25;;;;;11.48;61.91;101202.38;2094066;28;45241;-63
2021/11/21 00:09:49;;;;;;;;;42.75;33.75;;;;;11.48;61.94;101196.19;2096045;28;47389;-63
2021/11/21 00:10:50;;;;;;;;;36.00;33.60;;;;;11.47;61.79;101200.63;2096402;28;47238;-64
2021/11/21 00:11:50;;;;;;;;;36.25;31.75;;;;;11.48;62.15;101198.84;2092263;28;48208;-64
2021/11/21 00:12:51;;;;;;;;;37.00;30.50;;;;;11.47;61.83;101199.75;2097010;28;47280;-63
2021/11/21 00:13:52;;;;;;;;;34.00;31.25;;;;;11.47;61.97;101197.97;2095789;28;48258;-62
2021/11/21 00:14:52;;;;;;;;;35.25;31.75;;;;;11.48;62.07;101196.19;2102889;27;47354;-63
2021/11/21 00:15:53;;;;;;;;;30.75;29.25;;;;;11.48;61.95;101191.75;2099039;28;45390;-62
2021/11/21 00:16:57;;;;;;;;;30.00;29.25;;;;;11.47;61.99;101192.66;2095034;28;46865;-63
2021/11/21 00:17:58;;;;;;;;;35.20;30.00;;;;;11.49;62.06;101195.28;2095615;27;48142;-62
2021/11/21 00:18:58;;;;;;;;;26.80;24.80;;;;;11.48;61.89;101186.44;2099690;28;47354;-62
2021/11/21 00:19:59;;;;;;;;;31.00;28.25;;;;;11.48;61.93;101186.44;2095091;27;46466;-62
2021/11/21 00:21:00;;;;;;;;;28.00;25.25;;;;;11.48;62.10;101178.47;2105121;27;47371;-63
2021/11/21 00:22:01;;;;;;;;;25.80;25.80;;;;;11.49;62.03;101180.22;2104440;27;47657;-62
2021/11/21 00:23:02;;;;;;;;;28.80;27.00;;;;;11.48;62.22;101183.78;2095691;28;46534;-62
2021/11/21 00:24:03;;;;;;;;;31.80;29.40;;;;;11.49;62.07;101177.56;2082392;28;47286;-62
2021/11/21 00:25:04;;;;;;;;;31.20;29.60;;;;;11.49;62.03;101182.00;2092155;28;48352;-62
2021/11/21 00:26:05;;;;;;;;;27.80;27.40;;;;;11.49;62.20;101174.91;2091655;27;45372;-63
2021/11/21 00:27:06;;;;;;;;;24.50;22.75;;;;;11.49;62.20;101174.91;2096474;28;47525;-63
2021/11/21 00:28:07;;;;;;;;;24.20;23.00;;;;;11.50;61.99;101173.13;2094169;28;48799;-62
2021/11/21 00:29:08;;;;;;;;;22.00;21.25;;;;;11.50;62.06;101181.97;2095092;27;47432;-62
2021/11/21 00:30:08;;;;;;;;;24.75;23.25;;;;;11.50;61.70;101186.41;2095508;28;48395;-63
2021/11/21 00:31:09;;;;;;;;;21.75;21.75;;;;;11.48;61.99;101175.81;2095907;27;46946;-62
2021/11/21 00:32:10;;;;;;;;;27.75;26.00;;;;;11.48;61.74;101170.50;2098873;28;47759;-63
2021/11/21 00:33:10;;;;;;;;;27.50;24.75;;;;;11.49;61.98;101171.38;2092537;27;47165;-63
2021/11/21 00:34:11;;;;;;;;;24.25;22.75;;;;;11.48;62.04;101175.81;2097322;28;47953;-62
2021/11/21 00:35:11;;;;;;;;;19.75;18.25;;;;;11.49;62.05;101171.38;2089657;28;47700;-61
2021/11/21 00:36:12;;;;;;;;;16.50;16.50;;;;;11.48;61.70;101170.50;2094967;27;47391;-62
2021/11/21 00:37:12;;;;;;;;;24.50;21.75;;;;;11.47;61.66;101174.06;2098464;28;46429;-61
2021/11/21 00:38:14;;;;;;;;;24.25;22.25;;;;;11.48;61.90;101172.28;2091064;28;48268;-62
2021/11/21 00:39:14;;;;;;;;;23.60;20.80;;;;;11.46;61.76;101174.97;2086552;28;47308;-63
2021/11/21 00:40:15;;;;;;;;;22.50;19.75;;;;;11.45;61.64;101173.22;2098967;28;48511;-62
2021/11/21 00:41:15;;;;;;;;;22.25;20.25;;;;;11.45;61.94;101175.88;2099517;27;47310;-62
2021/11/21 00:42:16;;;;;;;;;25.25;20.25;;;;;11.43;61.75;101167.06;2097601;27;48225;-62
2021/11/21 00:43:17;;;;;;;;;24.20;23.80;;;;;11.44;61.83;101162.63;2096048;28;47378;-62
2021/11/21 00:44:17;;;;;;;;;20.75;20.50;;;;;11.45;61.97;101169.69;2093367;27;45531;-62
2021/11/21 00:45:18;;;;;;;;;27.50;23.00;;;;;11.45;62.13;101154.59;2098229;28;46463;-61
2021/11/21 00:46:19;;;;;;;;;23.00;21.80;;;;;11.45;61.93;101148.41;2094871;28;45993;-62
2021/11/21 00:47:20;;;;;;;;;15.00;14.75;;;;;11.45;61.54;101143.97;2095422;27;47345;-62
2021/11/21 00:48:22;;;;;;;;;18.25;18.25;;;;;11.44;61.87;101152.84;2099237;27;46273;-62
2021/11/21 00:49:22;;;;;;;;;28.80;24.60;;;;;11.44;62.04;101147.53;2094816;27;47330;-61
2021/11/21 00:50:26;;;;;;;;;21.75;17.75;;;;;11.44;61.91;101144.88;2096459;28;46237;-62
2021/11/21 00:51:27;;;;;;;;;24.20;23.00;;;;;11.46;61.88;101144.84;2089198;28;47470;-62
2021/11/21 00:52:30;;;;;;;;;21.60;19.60;;;;;11.44;61.94;101141.34;2094385;28;47515;-61
2021/11/21 00:53:31;;;;;;;;;23.60;22.00;;;;;11.45;61.74;101145.75;2097028;27;48384;-62
2021/11/21 00:55:54;;;;;;;;;27.60;25.00;;;;;11.47;61.99;101143.94;2095056;27;47344;-62
2021/11/21 00:56:54;;;;;;;;;24.20;21.60;;;;;11.47;61.70;101143.94;2091912;27;47463;-62
2021/11/21 00:57:55;;;;;;;;;21.75;19.75;;;;;11.46;61.75;101145.72;2098195;28;45391;-62
2021/11/21 00:58:55;;;;;;;;;25.50;24.75;;;;;11.48;61.68;101158.97;2094860;27;45500;-62
2021/11/21 00:59:56;;;;;;;;;28.75;24.00;;;;;11.47;61.68;101147.47;2101293;27;45992;-61
2021/11/21 01:00:57;;;;;;;;;26.00;24.00;;;;;11.47;61.73;101144.81;2100099;27;46308;-61
2021/11/21 01:01:57;;;;;;;;;25.75;22.50;;;;;11.48;61.91;101143.03;2091721;28;45351;-63
2021/11/21 01:02:59;;;;;;;;;33.20;26.60;;;;;11.47;61.94;101138.63;2098545;28;45625;-62
2021/11/21 01:03:59;;;;;;;;;27.20;25.00;;;;;11.47;61.96;101141.28;2084952;28;47046;-62
2021/11/21 01:05:00;;;;;;;;;26.25;25.25;;;;;11.48;61.83;101137.72;2090375;28;47650;-62
2021/11/21 01:06:02;;;;;;;;;28.75;24.75;;;;;11.47;61.88;101139.50;2092659;28;47348;-63
2021/11/21 01:07:03;;;;;;;;;25.40;22.40;;;;;11.48;61.84;101129.75;2092908;28;46338;-62
2021/11/21 01:08:04;;;;;;;;;28.20;24.60;;;;;11.48;61.90;101137.72;2082176;28;47834;-63
2021/11/21 01:09:05;;;;;;;;;24.50;23.50;;;;;11.49;61.96;101136.81;2084481;28;47980;-62
2021/11/21 01:10:09;;;;;;;;;29.00;25.25;;;;;11.47;61.76;101142.16;2085137;28;47064;-62
2021/11/21 01:11:10;;;;;;;;;24.60;23.60;;;;;11.48;61.97;101135.06;2089203;28;47786;-63
2021/11/21 01:12:10;;;;;;;;;29.75;24.75;;;;;11.49;61.75;101142.13;2088817;28;47729;-63
2021/11/21 01:13:11;;;;;;;;;25.75;24.00;;;;;11.50;61.77;101130.59;2096149;27;46995;-62
2021/11/21 01:14:12;;;;;;;;;27.25;24.75;;;;;11.50;61.67;101131.47;2092935;28;46777;-63
2021/11/21 01:15:18;;;;;;;;;30.25;28.25;;;;;11.50;61.75;101128.81;2089429;28;47453;-62
2021/11/21 01:16:18;;;;;;;;;29.00;26.20;;;;;11.50;61.63;101135.91;2087349;28;47130;-62
2021/11/21 01:17:19;;;;;;;;;17.00;15.75;;;;;11.52;61.66;101135.88;2093760;28;45330;-62
2021/11/21 01:18:20;;;;;;;;;29.00;26.75;;;;;11.49;61.87;101129.72;2096763;28;47246;-62
2021/11/21 01:19:21;;;;;;;;;29.50;24.50;;;;;11.50;61.72;101130.59;2093169;28;45489;-63
2021/11/21 01:20:23;;;;;;;;;24.50;23.25;;;;;11.49;61.91;101135.03;2095593;28;46781;-63
2021/11/21 01:21:24;;;;;;;;;25.80;22.20;;;;;11.50;61.97;101130.59;2093406;28;47134;-62
2021/11/21 01:22:25;;;;;;;;;22.75;21.00;;;;;11.49;61.79;101129.72;2091612;28;46270;-63
2021/11/21 01:23:25;;;;;;;;;27.50;24.25;;;;;11.49;62.04;101129.72;2097204;27;45583;-62
2021/11/21 01:24:26;;;;;;;;;24.50;23.00;;;;;11.47;61.66;101128.88;2095608;28;47253;-63
2021/11/21 01:25:28;;;;;;;;;33.00;27.50;;;;;11.49;62.09;101126.19;2094250;28;47388;-62
2021/11/21 01:26:28;;;;;;;;;25.80;23.80;;;;;11.49;62.04;101127.06;2092291;28;48191;-62
2021/11/21 01:27:29;;;;;;;;;29.50;24.75;;;;;11.50;61.96;101133.25;2086811;28;47119;-63
2021/11/21 01:28:29;;;;;;;;;19.50;19.50;;;;;11.50;61.98;101130.59;2087980;28;48334;-61
2021/11/21 01:29:30;;;;;;;;;26.50;23.50;;;;;11.50;61.93;101128.81;2098823;28;45505;-61
2021/11/21 01:30:32;;;;;;;;;23.75;21.75;;;;;11.50;62.06;101138.56;2095418;28;47294;-62
2021/11/21 01:31:32;;;;;;;;;28.80;26.00;;;;;11.50;62.05;101125.28;2097263;27;47281;-62
2021/11/21 01:32:33;;;;;;;;;28.75;24.75;;;;;11.49;62.25;101131.50;2089232;28;47926;-61
2021/11/21 01:33:36;;;;;;;;;26.50;26.50;;;;;11.50;61.98;101125.28;2086397;28;46945;-62
2021/11/21 01:34:37;;;;;;;;;26.60;23.20;;;;;11.49;62.30;101121.75;2099100;28;47204;-62
2021/11/21 01:35:38;;;;;;;;;25.25;24.50;;;;;11.49;62.03;101121.75;2096008;28;47074;-63
2021/11/21 01:36:38;;;;;;;;;25.00;20.50;;;;;11.50;62.00;101123.50;2095137;27;48068;-62
2021/11/21 01:37:40;;;;;;;;;29.00;26.00;;;;;11.50;62.21;101127.94;2100188;28;47134;-63
2021/11/21 01:38:42;;;;;;;;;27.80;25.80;;;;;11.49;62.25;101121.75;2095154;27;47160;-62
2021/11/21 01:39:43;;;;;;;;;19.80;19.80;;;;;11.49;62.21;101119.09;2096354;28;48195;-62
2021/11/21 01:40:43;;;;;;;;;27.25;25.00;;;;;11.50;62.40;101122.63;2098344;28;48173;-62
2021/11/21 01:41:44;;;;;;;;;25.25;24.00;;;;;11.50;62.05;101122.63;2094357;28;46825;-63
2021/11/21 01:42:47;;;;;;;;;28.50;25.50;;;;;11.52;62.03;101125.25;2091824;27;48112;-64
2021/11/21 01:43:48;;;;;;;;;27.80;25.80;;;;;11.50;62.27;101120.84;2085075;28;47827;-63
2021/11/21 01:44:48;;;;;;;;;30.75;26.25;;;;;11.52;62.14;101125.25;2092339;27;47177;-62
2021/11/21 01:45:49;;;;;;;;;31.00;27.75;;;;;11.52;62.02;101119.94;2092131;28;47161;-63
2021/11/21 01:46:51;;;;;;;;;27.20;25.00;;;;;11.51;61.99;101119.06;2092392;28;45353;-62
2021/11/21 01:47:52;;;;;;;;;31.00;28.00;;;;;11.51;61.81;101111.06;2101738;27;47095;-62
2021/11/21 01:48:53;;;;;;;;;28.60;26.60;;;;;11.51;62.04;101119.06;2091530;28;47871;-62
2021/11/21 01:49:53;;;;;;;;;28.75;24.25;;;;;11.50;62.16;101115.53;2091623;28;46306;-63
2021/11/21 01:50:58;;;;;;;;;27.25;26.50;;;;;11.50;61.94;101117.31;2099844;27;47237;-63
2021/11/21 01:51:59;;;;;;;;;31.60;29.80;;;;;11.51;62.13;101116.41;2083827;28;48140;-62
2021/11/21 01:53:01;;;;;;;;;30.40;25.80;;;;;11.50;62.18;101120.84;2083858;28;47341;-63
2021/11/21 01:54:02;;;;;;;;;27.60;24.80;;;;;11.51;62.22;101121.72;2100059;28;47929;-63
2021/11/21 01:55:05;;;;;;;;;24.80;22.80;;;;;11.49;61.99;101119.09;2099632;27;48078;-62
2021/11/21 01:56:05;;;;;;;;;28.80;24.40;;;;;11.52;61.97;101120.81;2084225;28;47587;-63
2021/11/21 01:57:06;;;;;;;;;27.50;24.25;;;;;11.50;62.39;101117.31;2091326;28;45839;-63
2021/11/21 01:58:07;;;;;;;;;26.25;25.75;;;;;11.51;61.98;101119.06;2091623;28;47458;-63
2021/11/21 01:59:09;;;;;;;;;29.40;27.80;;;;;11.50;62.18;101114.66;2091434;28;48180;-63
2021/11/21 02:00:11;;;;;;;;;28.00;25.40;;;;;11.51;62.30;101116.41;2091595;28;46947;-63
2021/11/21 02:01:11;;;;;;;;;26.20;22.60;;;;;11.51;61.96;101111.06;2088361;28;47672;-62
2021/11/21 02:02:12;;;;;;;;;23.00;23.00;;;;;11.52;62.16;101109.28;2087253;28;48096;-62
2021/11/21 02:03:13;;;;;;;;;25.50;23.75;;;;;11.53;62.18;101108.38;2085246;28;48411;-62
2021/11/21 02:04:14;;;;;;;;;28.20;24.20;;;;;11.54;62.05;101110.13;2088352;28;46968;-63
2021/11/21 02:05:14;;;;;;;;;27.50;24.75;;;;;11.54;62.19;101107.47;2086406;28;48084;-62
2021/11/21 02:06:15;;;;;;;;;27.00;24.25;;;;;11.55;62.04;101106.56;2083503;28;47138;-63
2021/11/21 02:07:15;;;;;;;;;32.50;29.25;;;;;11.54;62.08;101105.69;2082821;28;47231;-62
2021/11/21 02:08:16;;;;;;;;;25.50;25.00;;;;;11.57;62.28;101110.09;2085765;28;47327;-62
2021/11/21 02:09:16;;;;;;;;;38.75;33.25;;;;;11.55;62.18;101115.41;2092089;28;45288;-63
2021/11/21 02:10:22;;;;;;;;;32.50;31.25;;;;;11.55;62.26;101107.44;2092334;28;47218;-63
2021/11/21 02:11:25;;;;;;;;;35.80;32.40;;;;;11.56;62.21;101108.31;2094447;28;48261;-62
2021/11/21 02:12:27;;;;;;;;;39.20;35.00;;;;;11.55;62.26;101110.09;2099715;27;47433;-62
2021/11/21 02:13:27;;;;;;;;;39.20;35.40;;;;;11.56;62.21;101108.31;2091829;27;47854;-63
2021/11/21 02:14:30;;;;;;;;;42.00;35.00;;;;;11.56;62.40;101101.25;2092424;28;47671;-62
2021/11/21 02:15:31;;;;;;;;;33.60;31.60;;;;;11.57;62.35;101099.47;2091365;28;45620;-62
2021/11/21 02:16:33;;;;;;;;;35.80;32.20;;;;;11.56;62.15;101095.94;2091667;28;47460;-63
2021/11/21 02:17:33;;;;;;;;;37.00;32.60;;;;;11.56;62.35;101101.25;2091924;28;48194;-63
2021/11/21 02:18:34;;;;;;;;;44.50;35.50;;;;;11.56;62.42;101101.25;2092163;28;46953;-62
2021/11/21 02:19:35;;;;;;;;;43.20;37.20;;;;;11.57;62.07;101091.50;2092015;28;47188;-62
2021/11/21 02:20:35;;;;;;;;;40.25;36.50;;;;;11.56;62.41;101090.63;2100129;28;48026;-63
2021/11/21 02:21:35;;;;;;;;;38.25;34.75;;;;;11.58;62.42;101088.81;2095009;28;46074;-62
2021/11/21 02:22:38;;;;;;;;;38.00;32.75;;;;;11.58;62.48;101087.94;2085632;28;45609;-63
2021/11/21 02:23:40;;;;;;;;;37.60;31.40;;;;;11.57;62.31;101087.06;2091795;28;47414;-63
2021/11/21 02:24:40;;;;;;;;;33.20;31.40;;;;;11.57;62.43;101086.19;2091311;28;45235;-62
2021/11/21 02:25:41;;;;;;;;;29.25;28.50;;;;;11.58;62.22;101087.94;2090418;28;46976;-63
2021/11/21 02:26:42;;;;;;;;;37.00;33.25;;;;;11.56;62.27;101082.66;2091566;28;46218;-62
2021/11/21 02:27:42;;;;;;;;;23.00;21.50;;;;;11.57;62.51;101086.19;2091651;27;46191;-62
2021/11/21 02:28:46;;;;;;;;;31.75;27.75;;;;;11.57;62.32;101086.19;2096764;28;47989;-62
2021/11/21 02:29:46;;;;;;;;;33.00;26.80;;;;;11.58;62.40;101085.28;2094799;27;47038;-62
2021/11/21 02:30:47;;;;;;;;;29.25;28.50;;;;;11.56;62.34;101077.34;2099262;28;45563;-62
2021/11/21 02:31:47;;;;;;;;;33.25;31.00;;;;;11.57;62.24;101075.53;2086995;28;46972;-63
2021/11/21 02:32:50;;;;;;;;;31.50;30.75;;;;;11.59;62.54;101076.38;2087304;28;47800;-63
2021/11/21 02:33:52;;;;;;;;;32.80;28.40;;;;;11.58;62.61;101074.63;2099221;28;47398;-63
2021/11/21 02:34:53;;;;;;;;;31.80;26.80;;;;;11.59;62.68;101079.03;2095245;27;47522;-62
2021/11/21 02:35:58;;;;;;;;;27.60;26.80;;;;;11.59;62.61;101077.25;2097540;27;46028;-63
2021/11/21 02:36:58;;;;;;;;;31.80;28.60;;;;;11.59;62.44;101076.38;2097584;28;47811;-63
2021/11/21 02:37:58;;;;;;;;;28.25;28.25;;;;;11.59;62.26;101079.03;2094534;28;45962;-63
2021/11/21 02:39:00;;;;;;;;;34.00;31.25;;;;;11.59;62.60;101073.72;2098566;28;47518;-63
2021/11/21 02:40:00;;;;;;;;;28.60;24.80;;;;;11.59;62.34;101068.41;2097480;27;47220;-62
2021/11/21 02:41:04;;;;;;;;;34.00;31.75;;;;;11.58;62.58;101070.19;2094428;27;46784;-63
2021/11/21 02:42:05;;;;;;;;;31.80;28.80;;;;;11.58;62.71;101071.97;2090764;28;47120;-62
2021/11/21 02:43:06;;;;;;;;;28.40;28.00;;;;;11.58;62.32;101069.31;2095325;28;47348;-63
2021/11/21 02:44:07;;;;;;;;;29.00;24.50;;;;;11.57;62.42;101064.91;2095861;27;47448;-63
2021/11/21 02:45:14;;;;;;;;;38.80;34.00;;;;;11.56;62.76;101064.03;2099689;28;47309;-62
2021/11/21 02:46:16;;;;;;;;;29.80;28.20;;;;;11.56;62.59;101063.13;2094819;28;47227;-63
2021/11/21 02:47:16;;;;;;;;;35.60;32.20;;;;;11.57;62.55;101062.25;2095787;28;47700;-63
2021/11/21 02:48:20;;;;;;;;;30.75;28.75;;;;;11.57;62.61;101071.09;2098527;28;47039;-63
2021/11/21 02:49:20;;;;;;;;;38.40;32.60;;;;;11.57;62.60;101063.13;2094539;28;47371;-63
2021/11/21 02:50:23;;;;;;;;;37.00;29.50;;;;;11.57;62.76;101065.78;2097919;27;48099;-62
2021/11/21 02:51:24;;;;;;;;;29.80;26.20;;;;;11.57;62.50;101065.78;2098028;28;47320;-62
2021/11/21 02:52:26;;;;;;;;;31.80;29.40;;;;;11.57;62.88;101056.94;2095407;27;48142;-62
2021/11/21 02:53:28;;;;;;;;;36.60;31.60;;;;;11.57;62.78;101063.13;2098528;27;48315;-63
2021/11/21 02:54:28;;;;;;;;;34.00;31.20;;;;;11.57;62.76;101059.59;2097416;28;45370;-63
2021/11/21 02:55:32;;;;;;;;;29.25;26.50;;;;;11.58;62.67;101064.00;2095014;27;47367;-62
2021/11/21 02:56:32;;;;;;;;;38.40;30.80;;;;;11.58;62.70;101051.59;2095858;27;48443;-62
2021/11/21 02:57:33;;;;;;;;;31.50;31.00;;;;;11.59;62.62;101057.78;2095544;28;47322;-62
2021/11/21 02:58:34;;;;;;;;;32.25;29.75;;;;;11.57;62.61;101047.19;2096562;27;45408;-62
2021/11/21 02:59:34;;;;;;;;;35.60;29.00;;;;;11.58;62.95;101054.25;2099050;27;48147;-62
2021/11/21 03:00:37;;;;;;;;;28.00;26.00;;;;;11.59;62.77;101039.19;2093926;28;46746;-63
2021/11/21 03:01:38;;;;;;;;;36.20;31.40;;;;;11.58;62.88;101043.63;2083020;28;47282;-63
2021/11/21 03:02:43;;;;;;;;;31.00;29.50;;;;;11.59;62.82;101041.84;2097414;27;48004;-62
2021/11/21 03:03:44;;;;;;;;;33.60;28.80;;;;;11.59;62.85;101037.38;2085698;28;47163;-62
2021/11/21 03:04:49;;;;;;;;;28.25;28.25;;;;;11.60;62.74;101040.91;2083497;28;47985;-61
2021/11/21 03:05:50;;;;;;;;;33.20;29.40;;;;;11.58;62.79;101032.97;2096461;28;45410;-63
2021/11/21 03:06:50;;;;;;;;;33.00;30.00;;;;;11.59;62.95;101033.84;2092158;28;47572;-63
2021/11/21 03:07:51;;;;;;;;;31.00;27.75;;;;;11.58;62.67;101034.78;2093086;27;46841;-62
2021/11/21 03:08:53;;;;;;;;;29.20;27.60;;;;;11.57;62.94;101033.91;2094057;27;48303;-62
2021/11/21 03:09:54;;;;;;;;;30.60;29.40;;;;;11.57;62.59;101031.25;2092010;28;48065;-63
2021/11/21 03:10:55;;;;;;;;;25.25;24.25;;;;;11.58;62.50;101026.78;2094073;27;48091;-61
2021/11/21 03:11:56;;;;;;;;;28.20;26.00;;;;;11.56;62.69;101031.25;2094452;27;47782;-63
2021/11/21 03:13:00;;;;;;;;;35.60;27.40;;;;;11.56;62.76;101023.25;2082786;28;47402;-63
2021/11/21 03:14:03;;;;;;;;;25.20;23.00;;;;;11.55;62.85;101033.03;2089704;28;47200;-63
2021/11/21 03:15:04;;;;;;;;;31.80;27.60;;;;;11.55;62.73;101021.53;2099520;28;48256;-63
2021/11/21 03:16:05;;;;;;;;;39.60;32.00;;;;;11.56;62.88;101025.94;2098008;28;47314;-63
2021/11/21 03:17:06;;;;;;;;;36.50;31.50;;;;;11.56;62.94;101020.59;2097752;27;47202;-63
2021/11/21 03:18:06;;;;;;;;;35.00;30.80;;;;;11.56;62.87;101017.94;2100129;27;47908;-63
2021/11/21 03:19:07;;;;;;;;;31.50;30.50;;;;;11.56;63.07;101020.59;2080551;28;46906;-63
2021/11/21 03:20:08;;;;;;;;;34.75;27.00;;;;;11.57;62.74;101020.59;2072821;28;46744;-63
2021/11/21 03:21:08;;;;;;;;;33.40;31.60;;;;;11.57;63.05;101012.63;2081635;28;48015;-62
2021/11/21 03:22:09;;;;;;;;;28.00;24.25;;;;;11.58;63.00;101014.38;2088016;28;45540;-63
2021/11/21 03:23:10;;;;;;;;;32.50;27.00;;;;;11.58;62.91;101013.50;2099414;27;46782;-62
2021/11/21 03:24:10;;;;;;;;;31.00;29.75;;;;;11.58;62.75;101016.16;2098449;28;46329;-62
2021/11/21 03:25:12;;;;;;;;;26.25;25.00;;;;;11.58;62.94;101019.69;2095583;28;46883;-63
2021/11/21 03:26:13;;;;;;;;;32.40;29.20;;;;;11.59;62.86;101024.09;2082779;28;47420;-63
2021/11/21 03:27:14;;;;;;;;;33.00;31.40;;;;;11.57;62.94;101012.63;2080465;28;47162;-63
2021/11/21 03:28:16;;;;;;;;;34.40;29.80;;;;;11.58;62.93;101010.84;2088536;28;47192;-63
2021/11/21 03:29:16;;;;;;;;;29.40;28.00;;;;;11.56;62.94;101013.53;2091694;28;48356;-63
2021/11/21 03:30:20;;;;;;;;;32.00;26.25;;;;;11.56;62.95;101010.88;2095367;28;47704;-63
2021/11/21 03:31:21;;;;;;;;;32.80;31.20;;;;;11.54;62.88;101010.00;2098740;27;47041;-62
2021/11/21 03:32:21;;;;;;;;;36.25;31.25;;;;;11.53;63.00;101002.06;2099097;28;47994;-62
2021/11/21 03:33:22;;;;;;;;;32.00;31.00;;;;;11.52;62.82;101011.84;2088815;28;46887;-62
2021/11/21 03:34:22;;;;;;;;;29.00;27.25;;;;;11.52;63.11;101009.16;2091055;28;48126;-62
2021/11/21 03:35:24;;;;;;;;;30.00;26.50;;;;;11.52;62.88;101003.84;2097694;27;47968;-62
2021/11/21 03:36:24;;;;;;;;;31.60;28.40;;;;;11.52;63.04;101003.84;2105582;27;47243;-63
2021/11/21 03:37:26;;;;;;;;;33.25;27.00;;;;;11.52;62.75;101009.16;2107816;27;47990;-63
2021/11/21 03:38:26;;;;;;;;;32.20;28.60;;;;;11.50;62.91;101003.88;2097055;28;47356;-63
2021/11/21 03:39:27;;;;;;;;;24.00;21.00;;;;;11.50;62.97;101006.56;2097541;28;47352;-62
2021/11/21 03:40:28;;;;;;;;;29.25;26.25;;;;;11.50;62.93;101003.88;2099687;27;47407;-63
2021/11/21 03:41:28;;;;;;;;;29.25;25.50;;;;;11.50;62.91;101017.19;2097551;27;47271;-63
2021/11/21 03:42:29;;;;;;;;;33.75;28.75;;;;;11.50;63.00;101008.34;2099469;27;48371;-63
2021/11/21 03:43:29;;;;;;;;;29.25;25.00;;;;;11.49;62.76;101006.59;2089870;28;48257;-62
2021/11/21 03:44:30;;;;;;;;;30.00;28.50;;;;;11.49;62.85;100999.50;2075822;28;47246;-62
2021/11/21 03:45:31;;;;;;;;;31.50;29.50;;;;;11.49;63.15;100998.63;2082245;28;47185;-63
2021/11/21 03:46:33;;;;;;;;;28.40;26.20;;;;;11.48;62.92;101002.19;2090823;28;47315;-62
2021/11/21 03:47:34;;;;;;;;;36.00;28.40;;;;;11.48;62.96;100995.09;2091121;28;48482;-63
2021/11/21 03:48:34;;;;;;;;;33.60;31.80;;;;;11.48;62.86;101002.19;2090929;28;47544;-62
2021/11/21 03:49:35;;;;;;;;;29.25;26.50;;;;;11.48;63.04;101002.19;2090799;28;45327;-62
2021/11/21 03:50:36;;;;;;;;;28.00;25.50;;;;;11.47;62.80;101000.44;2091669;28;47309;-62
2021/11/21 03:51:36;;;;;;;;;25.25;22.75;;;;;11.47;62.83;101000.44;2091380;28;47150;-62
2021/11/21 03:52:37;;;;;;;;;34.50;31.75;;;;;11.46;62.76;101001.34;2091664;28;47462;-63
2021/11/21 03:53:38;;;;;;;;;33.00;26.00;;;;;11.46;62.67;101004.00;2090668;28;45283;-62
2021/11/21 03:54:39;;;;;;;;;32.40;27.80;;;;;11.45;62.79;100997.81;2090605;28;47148;-63
2021/11/21 03:55:40;;;;;;;;;28.00;23.60;;;;;11.45;62.96;100999.59;2090982;28;46367;-62
2021/11/21 03:56:41;;;;;;;;;29.00;27.25;;;;;11.44;62.95;100998.72;2091349;28;47241;-63
2021/11/21 03:57:41;;;;;;;;;30.25;26.75;;;;;11.45;62.81;101003.13;2091207;27;45979;-63
2021/11/21 03:58:42;;;;;;;;;32.25;30.00;;;;;11.44;62.79;101004.03;2091271;28;47172;-63
2021/11/21 03:59:43;;;;;;;;;31.00;25.75;;;;;11.43;63.09;101006.69;2107780;27;48519;-62
2021/11/21 04:00:46;;;;;;;;;30.20;23.60;;;;;11.44;62.91;101003.16;2099054;28;46928;-62
2021/11/21 04:01:48;;;;;;;;;30.20;28.20;;;;;11.44;63.01;101008.47;2090781;28;46626;-61
2021/11/21 04:02:48;;;;;;;;;31.60;26.80;;;;;11.43;63.11;100996.06;2082629;28;47311;-62
2021/11/21 04:03:49;;;;;;;;;33.50;31.25;;;;;11.44;62.87;100995.19;2090783;28;47334;-62
2021/11/21 04:04:49;;;;;;;;;31.00;29.50;;;;;11.44;62.92;101004.03;2099188;28;47834;-62
2021/11/21 04:05:50;;;;;;;;;26.50;25.50;;;;;11.45;62.83;101007.56;2099143;27;47106;-62
2021/11/21 04:06:51;;;;;;;;;26.00;24.00;;;;;11.44;63.02;101011.13;2090818;28;45147;-62
2021/11/21 04:07:51;;;;;;;;;26.00;24.75;;;;;11.44;62.95;101008.47;2090751;28;45394;-62
2021/11/21 04:08:52;;;;;;;;;21.75;21.00;;;;;11.42;62.77;101005.81;2082290;28;45552;-62
2021/11/21 04:09:52;;;;;;;;;29.50;27.50;;;;;11.42;63.04;101007.59;2082434;28;46118;-61
2021/11/21 04:10:54;;;;;;;;;27.50;23.00;;;;;11.40;63.07;101007.63;2083347;28;47111;-62
2021/11/21 04:11:54;;;;;;;;;27.20;24.20;;;;;11.39;62.95;101000.56;2095877;28;46864;-63
2021/11/21 04:12:55;;;;;;;;;28.25;25.75;;;;;11.40;63.03;100998.78;2090610;28;46470;-62
2021/11/21 04:13:57;;;;;;;;;24.75;24.00;;;;;11.39;63.23;100999.69;2081317;28;46902;-62
2021/11/21 04:14:57;;;;;;;;;24.20;23.20;;;;;11.39;62.93;100992.59;2082481;28;45858;-62
2021/11/21 04:15:58;;;;;;;;;28.75;28.00;;;;;11.40;62.94;100985.50;2091091;28;46761;-62
2021/11/21 04:16:58;;;;;;;;;28.75;24.50;;;;;11.39;62.99;100991.72;2087641;28;47135;-62
2021/11/21 04:17:59;;;;;;;;;27.50;26.00;;;;;11.39;62.88;100986.41;2090673;28;46273;-61
2021/11/21 04:19:00;;;;;;;;;30.75;29.00;;;;;11.38;63.11;100988.19;2082888;28;48352;-62
2021/11/21 04:20:01;;;;;;;;;32.50;26.50;;;;;11.38;63.14;100988.19;2086786;28;47319;-61
2021/11/21 04:21:02;;;;;;;;;31.80;28.60;;;;;11.38;63.17;100993.50;2091219;28;46451;-61
2021/11/21 04:22:03;;;;;;;;;30.40;25.00;;;;;11.37;62.94;100989.13;2097924;28;49180;-61
2021/11/21 04:23:04;;;;;;;;;26.75;23.50;;;;;11.38;62.99;100982.00;2097654;28;48213;-62
2021/11/21 04:24:06;;;;;;;;;27.50;26.00;;;;;11.38;63.04;100988.19;2099349;28;47123;-61
2021/11/21 04:25:08;;;;;;;;;31.40;29.00;;;;;11.39;63.12;100981.09;2087161;28;47145;-62
2021/11/21 04:26:08;;;;;;;;;29.40;22.00;;;;;11.38;63.51;100977.56;2090779;28;48134;-63
2021/11/21 04:27:11;;;;;;;;;29.75;27.50;;;;;11.38;63.18;100977.56;2096458;28;47047;-62
2021/11/21 04:28:11;;;;;;;;;26.20;24.00;;;;;11.39;63.08;100981.09;2093912;28;48416;-62
2021/11/21 04:29:12;;;;;;;;;28.75;24.75;;;;;11.38;63.37;100979.34;2098484;28;47084;-62
2021/11/21 04:30:15;;;;;;;;;27.25;25.75;;;;;11.38;63.36;100982.88;2095948;27;47458;-62
2021/11/21 04:31:15;;;;;;;;;28.40;23.40;;;;;11.37;63.17;100978.47;2094903;27;48187;-64
2021/11/21 04:32:16;;;;;;;;;24.50;22.50;;;;;11.37;63.43;100988.25;2099741;28;47267;-63
2021/11/21 04:33:16;;;;;;;;;22.75;20.25;;;;;11.36;63.36;100976.72;2094484;27;47238;-63
2021/11/21 04:34:17;;;;;;;;;29.00;25.50;;;;;11.36;63.21;100976.72;2087804;28;47738;-62
2021/11/21 04:35:19;;;;;;;;;27.00;24.00;;;;;11.34;63.08;100972.38;2088472;28;48059;-62
2021/11/21 04:36:20;;;;;;;;;24.80;21.40;;;;;11.32;63.29;100967.09;2094728;27;45321;-62
2021/11/21 04:37:20;;;;;;;;;24.75;22.50;;;;;11.31;63.44;100962.69;2097761;27;48043;-63
2021/11/21 04:38:23;;;;;;;;;23.00;21.00;;;;;11.31;63.25;100973.31;2096094;28;47201;-62
2021/11/21 04:39:24;;;;;;;;;27.00;27.00;;;;;11.31;63.32;100967.13;2094122;27;47171;-62